Time;durP1;ratioP1;P1;durP2;ratioP2;P2;SDS_P1;SDS_P2;PMS_P1;PMS_P2;Temp;Humidity;BMP_temperature;BMP_pressure;BME280_temperature;BME280_humidity;BME280_pressure;Samples;Min_cycle;Max_cycle;Signal;HPM_P1;HPM_P2
2021/11/02 00:01:56;;;;;;;3.50;1.58;;;12.10;84.30;;;;;;5020923;28;20025;-82
2021/11/02 00:04:22;;;;;;;4.70;1.90;;;12.00;84.20;;;;;;5026570;28;20096;-82
2021/11/02 00:06:48;;;;;;;5.82;2.08;;;12.00;84.20;;;;;;5025184;28;20033;-82
2021/11/02 00:09:16;;;;;;;4.40;1.63;;;12.00;84.20;;;;;;5030037;28;20469;-82
2021/11/02 00:11:54;;;;;;;3.83;1.67;;;12.00;84.30;;;;;;5021179;28;20049;-82
2021/11/02 00:14:22;;;;;;;6.25;1.80;;;12.00;84.30;;;;;;5029273;28;20037;-81
2021/11/02 00:16:54;;;;;;;4.68;1.63;;;11.90;84.30;;;;;;5030430;28;20028;-81
2021/11/02 00:19:22;;;;;;;2.90;1.55;;;11.90;84.30;;;;;;5027425;28;20038;-81
2021/11/02 00:21:51;;;;;;;2.90;1.67;;;11.90;84.40;;;;;;5023491;28;20076;-82
2021/11/02 00:27:00;;;;;;;;;;;11.80;84.40;;;;;;5017390;28;20057;-82
2021/11/02 00:29:26;;;;;;;4.65;2.00;;;11.90;84.50;;;;;;5018024;28;20003;-82
2021/11/02 00:31:54;;;;;;;2.17;1.80;;;11.80;84.30;;;;;;5017123;28;20496;-82
2021/11/02 00:34:20;;;;;;;4.63;2.90;;;11.80;84.40;;;;;;5029041;28;20100;-81
2021/11/02 00:36:46;;;;;;;3.38;1.92;;;11.80;84.50;;;;;;5022068;28;20546;-82
2021/11/02 00:39:11;;;;;;;6.18;2.15;;;11.80;84.50;;;;;;5034659;28;20480;-81
2021/11/02 00:41:37;;;;;;;4.65;2.15;;;11.70;84.60;;;;;;5020648;28;20037;-81
2021/11/02 00:44:04;;;;;;;7.68;2.15;;;11.80;84.60;;;;;;5032665;28;20747;-82
2021/11/02 00:46:36;;;;;;;3.08;1.90;;;11.80;84.70;;;;;;5019893;28;20029;-82
2021/11/02 00:49:05;;;;;;;3.65;2.30;;;11.70;84.60;;;;;;5030961;28;20028;-82
2021/11/02 00:51:31;;;;;;;4.22;2.30;;;11.70;84.60;;;;;;5022684;28;20034;-82
2021/11/02 00:53:57;;;;;;;4.15;2.08;;;11.70;84.70;;;;;;5030816;28;20045;-82
2021/11/02 00:56:23;;;;;;;5.32;2.42;;;11.70;84.70;;;;;;5033098;28;20064;-81
2021/11/02 00:58:49;;;;;;;5.97;2.30;;;11.70;84.70;;;;;;5025701;28;20038;-81
2021/11/02 01:01:15;;;;;;;3.28;2.28;;;11.60;84.50;;;;;;5023293;28;20029;-81
2021/11/02 01:03:41;;;;;;;4.50;2.00;;;11.60;84.50;;;;;;5021723;28;20048;-81
2021/11/02 01:06:07;;;;;;;6.50;2.20;;;11.60;84.50;;;;;;5032906;28;20038;-81
2021/11/02 01:08:33;;;;;;;4.82;2.17;;;11.60;84.50;;;;;;5032749;28;20037;-81
2021/11/02 01:11:01;;;;;;;9.35;2.10;;;11.50;84.60;;;;;;5013617;28;20483;-82
2021/11/02 01:13:27;;;;;;;5.68;2.78;;;11.50;84.70;;;;;;5016528;28;20037;-82
2021/11/02 01:15:54;;;;;;;4.88;2.30;;;11.50;84.80;;;;;;5028015;28;20034;-82
2021/11/02 01:18:20;;;;;;;7.47;2.90;;;11.50;84.80;;;;;;5025530;28;20029;-82
2021/11/02 01:20:46;;;;;;;5.07;2.70;;;11.50;84.90;;;;;;5022934;28;20096;-82
2021/11/02 01:23:14;;;;;;;5.97;2.92;;;11.50;84.90;;;;;;5026684;28;20103;-82
2021/11/02 01:25:40;;;;;;;6.68;2.70;;;11.40;84.90;;;;;;5027091;28;20064;-81
2021/11/02 01:28:06;;;;;;;4.88;2.13;;;11.50;85.00;;;;;;5019512;28;20025;-82
2021/11/02 01:30:38;;;;;;;4.10;2.42;;;11.40;85.00;;;;;;5031717;28;20388;-82
2021/11/02 01:33:04;;;;;;;5.13;2.42;;;11.40;85.00;;;;;;5025392;28;20022;-82
2021/11/02 01:35:30;;;;;;;6.07;2.58;;;11.30;84.90;;;;;;5043839;28;20036;-81
2021/11/02 01:38:04;;;;;;;5.03;2.63;;;11.30;85.00;;;;;;5025896;28;20551;-82
2021/11/02 01:40:30;;;;;;;6.00;2.55;;;11.30;85.00;;;;;;5028679;28;20080;-83
2021/11/02 01:42:57;;;;;;;4.47;2.70;;;11.30;85.10;;;;;;5035183;28;20020;-81
2021/11/02 01:45:28;;;;;;;5.00;2.60;;;11.30;85.00;;;;;;5040103;28;20037;-82
2021/11/02 01:47:59;;;;;;;3.22;2.15;;;11.30;85.10;;;;;;5032067;28;20040;-81
2021/11/02 01:50:36;;;;;;;8.07;2.83;;;11.30;85.10;;;;;;5031834;28;20481;-80
2021/11/02 01:53:02;;;;;;;4.55;2.70;;;11.30;85.20;;;;;;5033171;28;20608;-81
2021/11/02 01:55:29;;;;;;;4.20;2.67;;;11.20;85.20;;;;;;5018235;28;20025;-81
2021/11/02 01:57:56;;;;;;;5.90;2.55;;;11.20;85.30;;;;;;5025567;28;20097;-81
2021/11/02 02:00:28;;;;;;;5.30;3.05;;;11.20;85.30;;;;;;5024850;28;20137;-81
2021/11/02 02:03:16;;;;;;;5.47;3.25;;;11.20;85.40;;;;;;5031645;28;20057;-81
2021/11/02 02:05:51;;;;;;;5.22;2.80;;;11.20;85.50;;;;;;5023486;28;20033;-80
2021/11/02 02:08:21;;;;;;;7.47;2.80;;;11.20;85.50;;;;;;5024745;28;20120;-81
2021/11/02 02:11:09;;;;;;;4.63;2.83;;;11.20;85.50;;;;;;5030207;28;20031;-80
2021/11/02 02:14:02;;;;;;;6.35;2.78;;;11.10;85.60;;;;;;5029132;28;20116;-81
2021/11/02 02:16:40;;;;;;;6.60;2.88;;;11.10;85.60;;;;;;5025092;28;20021;-80
2021/11/02 02:19:11;;;;;;;6.93;2.92;;;11.00;85.60;;;;;;5021947;28;20594;-81
2021/11/02 02:21:53;;;;;;;4.53;2.60;;;11.00;85.70;;;;;;5027034;28;20034;-82
2021/11/02 02:24:22;;;;;;;7.82;2.83;;;11.10;85.90;;;;;;5023005;28;20411;-81
2021/11/02 02:26:52;;;;;;;8.35;3.13;;;11.00;85.80;;;;;;5047259;28;20389;-81
2021/11/02 02:29:21;;;;;;;7.85;2.83;;;11.00;85.90;;;;;;5028840;28;20025;-80
2021/11/02 02:31:49;;;;;;;9.85;3.30;;;11.00;85.90;;;;;;5025544;28;20026;-81
2021/11/02 02:34:16;;;;;;;4.45;2.72;;;11.00;86.00;;;;;;5014512;28;20116;-82
2021/11/02 02:36:51;;;;;;;4.63;3.05;;;10.90;86.00;;;;;;5043198;28;20034;-82
2021/11/02 02:39:18;;;;;;;4.72;2.90;;;11.00;86.10;;;;;;5026163;28;20033;-82
2021/11/02 02:42:00;;;;;;;8.25;3.03;;;10.90;86.20;;;;;;5023202;28;20026;-81
2021/11/02 02:44:26;;;;;;;5.13;3.05;;;10.90;86.30;;;;;;5035390;28;20041;-80
2021/11/02 02:46:53;;;;;;;6.22;2.80;;;10.90;86.50;;;;;;5030764;28;20025;-81
2021/11/02 02:49:21;;;;;;;5.43;2.92;;;10.90;86.60;;;;;;5030553;28;20523;-81
2021/11/02 02:51:48;;;;;;;7.55;2.80;;;10.80;86.60;;;;;;5027763;28;20025;-81
2021/11/02 02:54:16;;;;;;;5.20;2.88;;;10.80;86.60;;;;;;5030551;28;20025;-81
2021/11/02 02:56:46;;;;;;;7.55;2.75;;;10.80;86.70;;;;;;5028353;28;20034;-81
2021/11/02 02:59:15;;;;;;;5.50;2.97;;;10.80;86.80;;;;;;5030234;28;20084;-81
2021/11/02 03:01:43;;;;;;;7.50;2.78;;;10.80;86.80;;;;;;5028484;28;20378;-81
2021/11/02 03:04:14;;;;;;;7.38;3.00;;;10.80;86.80;;;;;;5044487;28;20076;-81
2021/11/02 03:06:42;;;;;;;7.72;3.03;;;10.80;86.90;;;;;;5030822;28;20037;-81
2021/11/02 03:09:10;;;;;;;6.75;2.72;;;10.80;86.90;;;;;;5029324;28;20030;-81
2021/11/02 03:11:39;;;;;;;4.57;2.85;;;10.80;86.90;;;;;;5019385;28;20026;-81
2021/11/02 03:14:08;;;;;;;5.20;2.88;;;10.80;87.00;;;;;;5033127;28;20029;-82
2021/11/02 03:19:33;;;;;;;7.05;3.72;;;10.70;86.90;;;;;;5027960;28;20025;-82
2021/11/02 03:44:55;;;;;;;8.63;3.10;;;10.70;87.10;;;;;;5033898;28;20401;-81
2021/11/02 03:55:54;;;;;;;6.93;2.97;;;10.60;87.20;;;;;;5014877;28;20025;-80
2021/11/02 04:23:56;;;;;;;10.35;3.78;;;10.40;86.50;;;;;;5025733;28;20090;-79
2021/11/02 04:29:33;;;;;;;5.72;3.60;;;10.30;86.50;;;;;;5039393;28;20029;-79
2021/11/02 05:49:37;;;;;;;7.68;3.50;;;9.80;87.00;;;;;;5039007;28;20029;-79
2021/11/02 05:52:38;;;;;;;9.57;4.78;;;9.80;87.00;;;;;;5047611;28;20037;-80
2021/11/02 05:58:09;;;;;;;10.80;3.92;;;9.80;87.00;;;;;;5031986;28;20032;-79
2021/11/02 06:00:49;;;;;;;7.95;4.75;;;9.80;87.00;;;;;;5034743;28;20030;-79
2021/11/02 06:06:09;;;;;;;8.45;4.93;;;9.90;87.20;;;;;;5030658;28;20558;-78
2021/11/02 06:09:08;;;;;;;13.73;5.43;;;9.90;87.20;;;;;;5031702;28;20034;-73
2021/11/02 06:29:01;;;;;;;8.18;4.40;;;10.00;86.90;;;;;;5027082;28;20033;-80
2021/11/02 06:31:32;;;;;;;10.68;4.97;;;10.00;86.90;;;;;;5025824;28;20087;-79
2021/11/02 06:50:20;;;;;;;8.00;4.78;;;10.00;86.90;;;;;;5024937;28;20048;-74
2021/11/02 06:59:03;;;;;;;9.77;4.15;;;10.00;86.50;;;;;;5025607;28;20465;-77
2021/11/02 07:18:14;;;;;;;7.38;3.70;;;9.60;86.90;;;;;;5025938;28;20029;-78
2021/11/02 07:20:56;;;;;;;12.77;5.15;;;9.60;86.90;;;;;;5024184;28;20076;-77
2021/11/02 08:45:49;;;;;;;15.88;6.10;;;9.20;91.00;;;;;;5032871;28;20630;-77
2021/11/02 08:48:17;;;;;;;8.88;2.78;;;9.20;91.10;;;;;;5028453;28;20048;-77
2021/11/02 08:50:49;;;;;;;8.65;4.13;;;9.20;91.20;;;;;;5026102;28;20026;-77
2021/11/02 08:53:18;;;;;;;2.53;1.63;;;9.20;91.30;;;;;;5030548;28;20052;-77
2021/11/02 08:55:44;;;;;;;11.05;5.30;;;9.20;91.30;;;;;;5031124;28;20021;-77
2021/11/02 08:58:10;;;;;;;10.60;4.80;;;9.30;91.30;;;;;;5025424;28;20030;-78
2021/11/02 09:00:37;;;;;;;4.72;3.10;;;9.30;91.30;;;;;;5032150;28;20124;-77
2021/11/02 09:03:20;;;;;;;12.50;6.53;;;9.40;91.20;;;;;;5025493;28;20048;-71
2021/11/02 09:05:54;;;;;;;21.17;8.52;;;9.40;91.10;;;;;;5027524;28;20038;-76
2021/11/02 09:08:20;;;;;;;12.15;4.45;;;9.50;91.10;;;;;;5023224;28;20037;-78
2021/11/02 09:10:47;;;;;;;11.95;5.05;;;9.50;91.00;;;;;;5028330;28;20029;-78
2021/11/02 09:13:13;;;;;;;10.48;4.18;;;9.50;90.90;;;;;;5024683;28;20025;-79
2021/11/02 09:15:41;;;;;;;7.18;4.20;;;9.50;90.90;;;;;;5032448;28;20032;-78
2021/11/02 09:18:10;;;;;;;17.40;7.55;;;9.60;90.90;;;;;;5027069;28;20025;-79
2021/11/02 09:20:37;;;;;;;20.92;9.23;;;9.60;91.00;;;;;;5026423;28;20083;-77
2021/11/02 09:23:04;;;;;;;19.58;10.98;;;9.60;91.00;;;;;;5024457;28;20041;-77
2021/11/02 09:25:31;;;;;;;17.88;9.05;;;9.70;91.00;;;;;;5024101;28;20046;-77
2021/11/02 09:27:57;;;;;;;13.13;5.13;;;9.70;90.90;;;;;;5022035;28;20048;-78
2021/11/02 09:30:24;;;;;;;11.98;5.68;;;9.80;90.90;;;;;;5016536;28;20030;-78
2021/11/02 09:32:55;;;;;;;10.23;5.90;;;9.80;90.80;;;;;;5018343;28;20428;-78
2021/11/02 09:35:24;;;;;;;21.35;7.18;;;9.90;90.70;;;;;;5018416;28;20052;-77
2021/11/02 09:38:04;;;;;;;7.50;4.60;;;9.90;90.70;;;;;;5029340;28;20063;-78
2021/11/02 09:40:29;;;;;;;17.33;8.82;;;10.00;90.50;;;;;;5015947;28;20038;-78
2021/11/02 09:43:16;;;;;;;16.75;9.48;;;10.00;90.50;;;;;;5022738;28;20527;-78
2021/11/02 09:46:02;;;;;;;19.35;7.57;;;10.00;90.60;;;;;;5023180;28;20092;-78
2021/11/02 09:48:49;;;;;;;17.75;9.65;;;10.10;90.50;;;;;;5016994;28;20115;-77
2021/11/02 09:51:21;;;;;;;10.68;5.80;;;10.20;90.40;;;;;;5026940;28;20041;-77
2021/11/02 09:54:19;;;;;;;16.50;8.75;;;10.20;90.30;;;;;;5019545;28;20034;-78
2021/11/02 09:57:00;;;;;;;12.25;5.32;;;10.10;90.40;;;;;;5032620;28;20037;-78
2021/11/02 09:59:50;;;;;;;20.90;11.15;;;10.20;90.40;;;;;;5031708;28;20025;-78
2021/11/02 10:02:39;;;;;;;7.07;3.90;;;10.20;90.50;;;;;;5029888;28;20037;-78
2021/11/02 10:05:49;;;;;;;11.65;6.05;;;10.30;90.40;;;;;;5024340;28;20115;-78
2021/11/02 10:08:25;;;;;;;19.95;8.88;;;10.30;90.40;;;;;;5013387;28;20496;-79
2021/11/02 10:11:09;;;;;;;18.50;8.07;;;10.30;90.40;;;;;;5029335;28;20049;-78
2021/11/02 10:13:50;;;;;;;11.27;6.20;;;10.40;90.40;;;;;;5026420;28;20032;-78
2021/11/02 10:16:43;;;;;;;18.17;5.20;;;10.40;90.30;;;;;;5027341;28;20039;-77
2021/11/02 10:19:37;;;;;;;12.52;7.63;;;10.40;90.30;;;;;;5026643;28;20668;-78
2021/11/02 10:22:24;;;;;;;8.85;4.18;;;10.40;90.30;;;;;;5031111;28;20033;-74
2021/11/02 10:25:05;;;;;;;10.27;4.95;;;10.50;90.20;;;;;;5020975;28;20049;-79
2021/11/02 10:28:07;;;;;;;8.30;5.13;;;10.40;90.20;;;;;;5020431;28;20374;-73
2021/11/02 10:31:01;;;;;;;9.80;4.35;;;10.40;90.30;;;;;;5024509;28;20040;-80
2021/11/02 10:33:36;;;;;;;8.82;4.70;;;10.40;90.30;;;;;;5025612;28;20489;-80
2021/11/02 10:36:23;;;;;;;5.65;2.33;;;10.50;90.40;;;;;;5028776;28;20116;-80
2021/11/02 10:38:59;;;;;;;12.15;6.22;;;10.50;90.30;;;;;;5026383;28;20026;-80
2021/11/02 10:41:35;;;;;;;12.55;7.15;;;10.50;90.40;;;;;;5026432;28;20489;-80
2021/11/02 10:44:29;;;;;;;5.88;3.90;;;10.60;90.60;;;;;;5025062;28;20783;-79
2021/11/02 10:47:16;;;;;;;5.45;3.22;;;10.70;90.50;;;;;;5028995;28;20029;-77
2021/11/02 10:50:05;;;;;;;6.55;3.50;;;10.70;90.40;;;;;;5028594;28;20481;-78
2021/11/02 10:52:32;;;;;;;9.07;2.22;;;10.70;90.30;;;;;;5023507;28;20108;-81
2021/11/02 10:55:05;;;;;;;11.57;5.90;;;10.70;90.30;;;;;;5030334;28;20041;-78
2021/11/02 10:57:56;;;;;;;12.27;5.32;;;10.80;90.50;;;;;;5032924;28;20068;-80
2021/11/02 11:00:22;;;;;;;11.48;6.50;;;10.80;90.50;;;;;;5030942;28;20523;-79
2021/11/02 11:02:53;;;;;;;5.22;3.58;;;10.90;90.50;;;;;;5029418;28;20127;-80
2021/11/02 11:05:19;;;;;;;6.43;3.75;;;10.90;90.50;;;;;;5028178;28;20203;-80
2021/11/02 11:07:45;;;;;;;6.07;3.78;;;10.90;90.40;;;;;;5026275;28;20440;-80
2021/11/02 11:10:13;;;;;;;13.32;6.85;;;10.90;90.50;;;;;;5031023;28;20393;-83
2021/11/02 11:12:47;;;;;;;12.70;5.40;;;11.00;90.60;;;;;;5028451;28;20033;-83
2021/11/02 11:15:13;;;;;;;9.68;5.25;;;11.00;90.60;;;;;;5026281;28;20033;-82
2021/11/02 11:17:48;;;;;;;11.10;6.40;;;11.00;90.50;;;;;;5022055;28;20473;-81
2021/11/02 11:20:15;;;;;;;14.52;7.57;;;11.10;90.60;;;;;;5028892;28;20029;-81
2021/11/02 11:22:43;;;;;;;15.20;8.40;;;11.20;90.50;;;;;;5027733;28;20026;-84
2021/11/02 11:25:12;;;;;;;11.68;8.02;;;11.30;90.60;;;;;;5024059;28;20103;-83
2021/11/02 11:27:46;;;;;;;14.55;8.52;;;11.30;90.60;;;;;;5026262;28;20033;-73
2021/11/02 11:30:14;;;;;;;19.02;8.52;;;11.40;90.70;;;;;;5025384;28;20532;-67
2021/11/02 11:32:41;;;;;;;10.85;6.72;;;11.40;90.70;;;;;;5027387;28;20026;-73
2021/11/02 11:35:09;;;;;;;12.27;7.53;;;11.50;90.60;;;;;;5025030;28;20052;-86
2021/11/02 11:37:40;;;;;;;17.85;8.43;;;11.60;90.60;;;;;;5026033;28;20057;-86
2021/11/02 11:40:08;;;;;;;13.65;8.65;;;11.60;90.60;;;;;;5026967;28;20056;-83
2021/11/02 11:42:34;;;;;;;9.30;5.20;;;11.70;90.50;;;;;;5034169;28;20075;-82
2021/11/02 11:45:11;;;;;;;10.25;6.13;;;11.70;90.40;;;;;;5022269;28;20044;-83
2021/11/02 11:47:38;;;;;;;12.00;8.35;;;11.70;90.40;;;;;;5024261;28;20068;-82
2021/11/02 11:50:18;;;;;;;12.02;7.05;;;11.70;90.20;;;;;;5030466;28;20033;-82
2021/11/02 11:52:51;;;;;;;17.00;8.55;;;11.80;90.30;;;;;;5030036;28;20029;-89
2021/11/02 11:55:23;;;;;;;16.42;8.02;;;11.90;90.30;;;;;;5024416;28;20136;-83
2021/11/02 11:58:07;;;;;;;9.57;5.28;;;11.90;90.30;;;;;;5028459;28;20045;-83
2021/11/02 12:00:37;;;;;;;;;;;11.90;90.20;;;;;;5025434;28;20481;-82
2021/11/02 12:03:27;;;;;;;19.10;7.93;;;12.00;90.10;;;;;;5029862;28;19979;-84
2021/11/02 12:06:21;;;;;;;16.63;11.25;;;12.00;90.10;;;;;;5029403;28;20048;-83
2021/11/02 12:09:15;;;;;;;13.18;8.30;;;12.00;90.30;;;;;;5021673;28;20105;-82
2021/11/02 12:11:42;;;;;;;15.10;8.50;;;12.10;90.40;;;;;;5026429;28;20033;-86
2021/11/02 12:14:18;;;;;;;14.02;7.93;;;12.10;90.30;;;;;;5024907;28;20041;-83
2021/11/02 12:16:45;;;;;;;10.10;6.13;;;12.10;90.30;;;;;;5026965;28;20026;-84
2021/11/02 12:19:22;;;;;;;15.85;8.77;;;12.20;90.30;;;;;;5030491;28;20055;-83
2021/11/02 12:22:01;;;;;;;12.45;7.85;;;12.20;90.40;;;;;;5020584;28;20080;-83
2021/11/02 12:24:32;;;;;;;9.68;5.50;;;12.30;90.30;;;;;;5031221;28;20075;-83
2021/11/02 12:27:19;;;;;;;11.40;6.68;;;12.30;90.20;;;;;;5031635;28;20126;-83
2021/11/02 12:29:48;;;;;;;9.20;6.00;;;12.30;90.30;;;;;;5021254;28;20034;-84
2021/11/02 12:32:17;;;;;;;10.82;5.57;;;12.40;90.20;;;;;;5024288;28;20034;-84
2021/11/02 12:34:52;;;;;;;9.23;4.28;;;12.40;90.20;;;;;;5033092;28;20029;-86
2021/11/02 12:37:20;;;;;;;13.10;5.97;;;12.40;90.10;;;;;;5035001;28;20052;-83
2021/11/02 12:39:46;;;;;;;10.75;5.40;;;12.40;90.20;;;;;;5029100;28;20040;-79
2021/11/02 12:42:16;;;;;;;9.00;5.30;;;12.50;90.20;;;;;;5034313;28;20461;-83
2021/11/02 12:44:44;;;;;;;9.48;5.70;;;12.50;90.20;;;;;;5032896;28;20030;-78
2021/11/02 12:47:14;;;;;;;11.25;6.72;;;12.40;90.20;;;;;;5033220;28;20060;-83
2021/11/02 12:49:58;;;;;;;11.57;5.90;;;12.50;90.20;;;;;;5020700;28;20033;-86
2021/11/02 12:52:28;;;;;;;11.43;5.82;;;12.50;90.30;;;;;;5023735;28;20041;-75
2021/11/02 12:55:03;;;;;;;10.60;5.80;;;12.50;90.20;;;;;;5033356;28;20038;-74
2021/11/02 12:57:40;;;;;;;9.02;6.05;;;12.50;90.20;;;;;;5021834;28;20121;-83
2021/11/02 13:00:28;;;;;;;9.65;6.00;;;12.60;90.20;;;;;;5031404;28;20036;-83
2021/11/02 13:03:02;;;;;;;9.35;5.68;;;12.70;90.20;;;;;;5026729;28;20038;-82
2021/11/02 13:05:30;;;;;;;10.23;5.60;;;12.60;90.10;;;;;;5031483;28;20060;-83
2021/11/02 13:08:08;;;;;;;9.45;5.03;;;12.70;90.10;;;;;;5030272;28;20032;-82
2021/11/02 13:10:35;;;;;;;8.98;5.10;;;12.70;90.10;;;;;;5028934;28;20049;-85
2021/11/02 13:13:07;;;;;;;9.77;4.72;;;12.80;90.10;;;;;;5027665;28;20025;-82
2021/11/02 13:16:05;;;;;;;10.43;5.40;;;12.80;90.10;;;;;;5029110;28;20034;-75
2021/11/02 13:18:35;;;;;;;10.73;4.45;;;12.80;90.10;;;;;;5028275;28;20112;-82
2021/11/02 13:21:26;;;;;;;18.13;6.35;;;12.80;90.00;;;;;;5033279;28;20064;-82
2021/11/02 13:24:06;;;;;;;10.43;3.70;;;12.90;90.10;;;;;;5026028;28;20053;-83
2021/11/02 13:26:33;;;;;;;11.43;2.75;;;12.90;90.00;;;;;;5027760;28;20534;-82
2021/11/02 13:29:28;;;;;;;6.18;4.28;;;12.90;90.00;;;;;;5030068;28;20029;-80
2021/11/02 13:31:55;;;;;;;10.30;3.80;;;12.90;90.00;;;;;;5028524;28;20038;-78
2021/11/02 13:34:29;;;;;;;7.05;3.33;;;12.90;90.00;;;;;;5028686;28;20037;-87
2021/11/02 13:37:06;;;;;;;7.10;3.63;;;12.90;90.10;;;;;;5030595;28;20112;-85
2021/11/02 13:39:53;;;;;;;5.68;3.38;;;12.90;90.20;;;;;;5029934;28;20435;-81
2021/11/02 13:42:47;;;;;;;4.57;2.45;;;12.90;90.30;;;;;;5025413;28;20104;-81
2021/11/02 13:45:15;;;;;;;14.48;3.85;;;12.90;90.30;;;;;;5025863;28;20041;-82
2021/11/02 13:47:43;;;;;;;7.72;4.05;;;12.90;90.50;;;;;;5021853;28;20447;-79
2021/11/02 13:50:09;;;;;;;5.38;3.58;;;12.80;90.50;;;;;;5023531;28;20081;-80
2021/11/02 13:52:34;;;;;;;6.68;3.70;;;12.90;90.50;;;;;;5027946;28;20072;-81
2021/11/02 13:55:02;;;;;;;4.10;2.85;;;12.90;90.50;;;;;;5026327;28;20112;-81
2021/11/02 13:57:28;;;;;;;2.28;1.90;;;12.90;90.50;;;;;;5024763;28;20037;-82
2021/11/02 13:59:57;;;;;;;5.00;3.35;;;12.90;90.60;;;;;;5024612;28;20026;-81
2021/11/02 14:02:24;;;;;;;9.63;3.45;;;12.90;90.60;;;;;;5022462;28;20036;-80
2021/11/02 14:04:51;;;;;;;2.05;1.60;;;12.90;90.60;;;;;;5023256;28;20480;-81
2021/11/02 14:07:22;;;;;;;5.30;2.80;;;12.90;90.60;;;;;;5024388;28;20473;-79
2021/11/02 14:10:08;;;;;;;1.15;1.02;;;12.90;90.70;;;;;;5026241;28;20091;-81
2021/11/02 14:12:51;;;;;;;2.80;1.70;;;12.90;90.80;;;;;;5025775;28;20163;-81
2021/11/02 14:15:18;;;;;;;1.48;0.90;;;12.90;90.80;;;;;;5025214;28;20038;-81
2021/11/02 14:17:54;;;;;;;10.13;3.45;;;12.80;90.80;;;;;;5023295;28;20091;-82
2021/11/02 14:20:39;;;;;;;9.88;3.83;;;12.90;90.90;;;;;;5026119;28;20116;-82
2021/11/02 14:23:31;;;;;;;13.73;2.53;;;12.80;90.80;;;;;;5025918;28;20473;-82
2021/11/02 14:26:15;;;;;;;3.65;2.25;;;12.80;90.90;;;;;;5021007;28;20045;-81
2021/11/02 14:28:49;;;;;;;8.23;3.38;;;12.80;90.90;;;;;;5023241;28;20074;-82
2021/11/02 14:31:37;;;;;;;7.47;3.05;;;12.80;90.90;;;;;;5026527;28;20029;-81
2021/11/02 14:34:04;;;;;;;4.05;2.63;;;12.80;90.90;;;;;;5024564;28;20037;-82
2021/11/02 14:36:38;;;;;;;4.10;2.65;;;12.80;90.90;;;;;;5028197;28;20033;-82
2021/11/02 14:39:06;;;;;;;3.25;1.95;;;12.90;90.90;;;;;;5025981;28;20128;-83
2021/11/02 14:41:34;;;;;;;5.07;3.08;;;12.90;91.00;;;;;;5026800;28;20469;-82
2021/11/02 14:44:15;;;;;;;7.70;2.60;;;12.80;90.90;;;;;;5028279;28;20028;-82
2021/11/02 14:46:48;;;;;;;6.25;2.63;;;12.90;90.90;;;;;;5021855;28;20033;-82
2021/11/02 14:49:32;;;;;;;6.53;2.28;;;12.90;90.90;;;;;;5023438;28;20038;-82
2021/11/02 14:51:58;;;;;;;6.78;2.67;;;12.90;90.90;;;;;;5025425;28;20045;-83
2021/11/02 14:54:29;;;;;;;6.97;3.00;;;12.90;90.90;;;;;;5027630;28;20026;-82
2021/11/02 14:57:33;;;;;;;5.97;2.97;;;12.90;90.80;;;;;;5025171;28;20041;-82
2021/11/02 15:00:01;;;;;;;6.53;3.25;;;12.90;90.70;;;;;;5023046;28;20472;-82
2021/11/02 15:02:35;;;;;;;5.10;2.60;;;13.00;90.70;;;;;;5023474;28;20406;-83
2021/11/02 15:05:06;;;;;;;5.40;3.35;;;13.00;90.70;;;;;;5027711;28;20049;-75
2021/11/02 15:07:36;;;;;;;8.50;3.28;;;13.00;90.70;;;;;;5028262;28;20048;-83
2021/11/02 15:10:07;;;;;;;5.85;2.92;;;13.10;90.60;;;;;;5021281;28;20183;-83
2021/11/02 15:12:33;;;;;;;5.95;3.60;;;13.10;90.40;;;;;;5031000;28;20123;-82
2021/11/02 15:15:03;;;;;;;7.85;3.08;;;13.10;90.40;;;;;;5024113;28;20046;-83
2021/11/02 15:17:29;;;;;;;7.97;3.15;;;13.20;90.30;;;;;;5023720;28;20033;-77
2021/11/02 15:19:55;;;;;;;9.80;3.92;;;13.20;90.10;;;;;;5025549;28;20026;-82
2021/11/02 15:22:23;;;;;;;5.20;3.38;;;13.20;90.30;;;;;;5028958;28;20408;-82
2021/11/02 15:24:54;;;;;;;4.57;3.08;;;13.30;90.00;;;;;;5023035;28;20429;-76
2021/11/02 15:27:26;;;;;;;7.13;3.50;;;13.30;89.90;;;;;;5029542;28;20029;-80
2021/11/02 15:29:59;;;;;;;5.68;3.35;;;13.30;89.80;;;;;;5020908;28;20025;-78
2021/11/02 15:32:27;;;;;;;7.68;3.20;;;13.40;89.70;;;;;;5023678;28;20041;-81
2021/11/02 15:34:58;;;;;;;8.73;3.40;;;13.40;89.60;;;;;;5024885;28;20041;-81
2021/11/02 15:37:28;;;;;;;6.95;3.55;;;13.40;89.50;;;;;;5025933;28;20039;-79
2021/11/02 15:40:00;;;;;;;4.57;3.08;;;13.40;89.30;;;;;;5024220;28;20044;-80
2021/11/02 15:42:36;;;;;;;6.03;3.33;;;13.50;89.20;;;;;;5028173;28;20034;-77
2021/11/02 15:45:10;;;;;;;6.93;3.65;;;13.40;89.10;;;;;;5028246;28;20065;-80
2021/11/02 15:47:43;;;;;;;6.47;3.40;;;13.40;89.10;;;;;;5021735;28;20116;-79
2021/11/02 15:50:14;;;;;;;13.55;3.50;;;13.40;89.10;;;;;;5023594;28;20038;-79
2021/11/02 15:52:39;;;;;;;9.48;4.05;;;13.40;89.10;;;;;;5025351;28;20392;-79
2021/11/02 15:55:11;;;;;;;8.90;3.55;;;13.50;89.30;;;;;;5024009;28;20029;-80
2021/11/02 15:57:54;;;;;;;8.90;3.97;;;13.40;89.30;;;;;;5019076;28;20543;-78
2021/11/02 16:00:30;;;;;;;6.38;4.30;;;13.40;89.30;;;;;;5025263;28;21297;-79
2021/11/02 16:02:56;;;;;;;6.97;3.90;;;13.40;89.20;;;;;;5024786;28;20055;-78
2021/11/02 16:05:25;;;;;;;7.22;3.95;;;13.50;89.20;;;;;;5022957;28;20084;-79
2021/11/02 16:07:52;;;;;;;7.53;4.20;;;13.50;89.20;;;;;;5028728;28;20025;-77
2021/11/02 16:10:23;;;;;;;6.80;3.88;;;13.50;89.20;;;;;;5029830;28;20033;-76
2021/11/02 16:12:49;;;;;;;7.22;4.10;;;13.40;89.10;;;;;;5029799;28;20431;-78
2021/11/02 16:15:16;;;;;;;8.55;4.40;;;13.40;89.10;;;;;;5028827;28;20029;-75
2021/11/02 16:17:54;;;;;;;7.35;4.10;;;13.50;89.10;;;;;;5031975;28;20017;-76
2021/11/02 16:20:36;;;;;;;6.75;3.75;;;13.40;89.00;;;;;;5020202;28;20037;-76
2021/11/02 16:23:07;;;;;;;6.55;4.20;;;13.50;89.00;;;;;;5020495;28;20038;-77
2021/11/02 16:25:38;;;;;;;6.15;3.88;;;13.40;88.90;;;;;;5024383;28;20042;-76
2021/11/02 16:28:24;;;;;;;5.53;3.75;;;13.50;88.90;;;;;;5028766;28;20060;-77
2021/11/02 16:30:56;;;;;;;7.50;4.30;;;13.50;88.90;;;;;;5023823;28;20065;-77
2021/11/02 16:33:37;;;;;;;5.68;3.92;;;13.40;89.40;;;;;;5027952;28;20084;-77
2021/11/02 16:36:25;;;;;;;9.25;3.95;;;13.50;88.80;;;;;;5022394;28;20017;-79
2021/11/02 16:38:55;;;;;;;7.95;3.95;;;13.40;88.80;;;;;;5028317;28;20028;-75
2021/11/02 16:41:44;;;;;;;8.38;4.45;;;13.50;88.80;;;;;;5029598;28;20405;-76
2021/11/02 16:44:13;;;;;;;8.93;4.22;;;13.40;88.80;;;;;;5030027;28;20036;-76
2021/11/02 16:46:51;;;;;;;11.77;4.30;;;13.40;88.80;;;;;;5028001;28;20037;-75
2021/11/02 16:49:19;;;;;;;8.52;4.03;;;13.50;88.90;;;;;;5022926;28;20738;-76
2021/11/02 16:51:54;;;;;;;10.35;4.13;;;13.50;88.80;;;;;;5032638;28;20033;-77
2021/11/02 16:54:29;;;;;;;7.43;4.32;;;13.50;88.80;;;;;;5026931;28;20082;-77
2021/11/02 16:56:58;;;;;;;7.50;4.10;;;13.40;88.80;;;;;;5023643;28;20025;-78
2021/11/02 16:59:42;;;;;;;6.35;3.88;;;13.40;88.70;;;;;;5030016;28;20079;-78
2021/11/02 17:02:22;;;;;;;6.40;3.95;;;13.50;88.70;;;;;;5029470;28;20080;-78
2021/11/02 17:05:15;;;;;;;7.40;4.00;;;13.50;88.70;;;;;;5019782;28;20049;-78
2021/11/02 17:07:48;;;;;;;8.68;4.45;;;13.40;88.60;;;;;;5024024;28;20038;-78
2021/11/02 17:10:23;;;;;;;7.93;4.03;;;13.50;88.70;;;;;;5028049;28;20025;-77
2021/11/02 17:13:06;;;;;;;6.78;4.45;;;13.40;88.70;;;;;;5030568;28;20037;-75
2021/11/02 17:15:38;;;;;;;7.97;5.00;;;13.40;88.70;;;;;;5033125;28;20045;-74
2021/11/02 17:18:07;;;;;;;9.98;5.28;;;13.40;88.70;;;;;;5031310;28;20504;-78
2021/11/02 17:20:34;;;;;;;10.93;5.13;;;13.50;88.80;;;;;;5033312;28;20038;-79
2021/11/02 17:23:02;;;;;;;11.80;5.30;;;13.40;88.80;;;;;;5016582;28;20040;-79
2021/11/02 17:25:30;;;;;;;11.43;6.15;;;13.40;88.80;;;;;;5016128;28;20149;-78
2021/11/02 17:27:56;;;;;;;12.93;6.05;;;13.40;88.70;;;;;;5018311;28;20029;-79
2021/11/02 17:30:31;;;;;;;13.82;6.13;;;13.40;88.70;;;;;;5024303;28;20041;-78
2021/11/02 17:32:58;;;;;;;10.90;5.82;;;13.40;88.70;;;;;;5017209;28;20030;-78
2021/11/02 17:35:25;;;;;;;7.25;4.82;;;13.40;88.60;;;;;;5032171;28;20037;-79
2021/11/02 17:37:53;;;;;;;11.05;6.05;;;13.40;89.10;;;;;;5029292;28;20033;-79
2021/11/02 17:40:21;;;;;;;6.85;3.90;;;13.40;88.40;;;;;;5022131;28;20179;-79
2021/11/02 17:42:52;;;;;;;4.82;3.40;;;13.40;88.40;;;;;;5033985;28;20083;-78
2021/11/02 17:45:19;;;;;;;4.88;3.60;;;13.30;88.30;;;;;;5027948;28;20037;-82
2021/11/02 17:47:52;;;;;;;5.80;3.47;;;13.40;88.30;;;;;;5016357;28;20535;-68
2021/11/02 17:50:20;;;;;;;10.88;3.88;;;13.30;88.10;;;;;;5026635;28;20033;-83
2021/11/02 17:52:46;;;;;;;6.65;3.92;;;13.30;88.10;;;;;;5026814;28;20021;-82
2021/11/02 17:55:13;;;;;;;5.72;3.78;;;13.30;88.10;;;;;;5025618;28;20044;-80
2021/11/02 17:57:43;;;;;;;7.32;3.83;;;13.30;88.00;;;;;;5029668;28;20052;-81
2021/11/02 18:00:12;;;;;;;7.05;3.75;;;13.30;88.00;;;;;;5028924;28;20489;-80
2021/11/02 18:02:38;;;;;;;6.68;4.07;;;13.30;87.80;;;;;;5024860;28;20037;-79
2021/11/02 18:05:04;;;;;;;6.72;3.65;;;13.20;87.70;;;;;;5028332;28;20099;-79